Terminal Aerodrome Forecast
Issued by NWS Sioux Falls, SD

Home | Current Version | Previous Version | Text Only | Print | Product List | Glossary On
Versions: 1 2 3 4 5 6 7 8 9 10 11 12 13 14 15 16 17 18
000
FTUS43 KFSD 280409 AAB
TAFFSD
TAF AMD
KFSD 280409Z 2804/2824 14014KT P6SM OVC110
     FM280600 16013KT P6SM BKN100
     FM281400 18006KT P6SM SCT150=

USA.gov is the U.S. government's official web portal to all federal, state and local government web resources and services.